Terminal Aerodrome Forecast
Issued by NWS

Home | Current Version | Previous Version | Text Only | Print | Product List | Glossary On
Versions: 1 2 3 4 5 6 7 8 9 10 11 12 13 14 15 16 17
000
FTUS42 KMLB 302006 AAA
TAFSUA
TAF AMD
KSUA 302006Z 3020/3118 14011KT P6SM VCTS SCT015 BKN025CB OVC060
      TEMPO 3020/3021 VRB15G25KT 3SM TSRA BKN015CB
     FM302100 14012G20KT 6SM -RA VCTS BKN030CB OVC100
     FM310100 17007KT P6SM VCSH SCT020 BKN050 OVC250
     FM311300 19009KT P6SM VCSH SCT030 BKN050 OVC250
      TEMPO 3114/3118 2SM TSRA BKN020CB=

USA.gov is the U.S. government's official web portal to all federal, state and local government web resources and services.